sensor_id;sensor_type;location;lat;lon;timestamp;pressure;altitude;pressure_sealevel;temperature;humidity
60228;BME280;46091;46.512;6.626;2023-08-07T00:01:43;97236.25;;;19.13;49.11
60228;BME280;46091;46.512;6.626;2023-08-07T00:03:47;97240.94;;;19.06;49.43
60228;BME280;46091;46.512;6.626;2023-08-07T00:05:50;97244.69;;;19.05;49.41
60228;BME280;46091;46.512;6.626;2023-08-07T00:07:53;97231.97;;;19.01;49.39
60228;BME280;46091;46.512;6.626;2023-08-07T00:09:56;97233.16;;;18.93;49.46
60228;BME280;46091;46.512;6.626;2023-08-07T00:11:58;97235.94;;;18.98;49.71
60228;BME280;46091;46.512;6.626;2023-08-07T00:14:01;97225.09;;;19.05;49.41
60228;BME280;46091;46.512;6.626;2023-08-07T00:16:04;97214.97;;;19.07;49.65
60228;BME280;46091;46.512;6.626;2023-08-07T00:18:07;97218.53;;;19.12;49.71
60228;BME280;46091;46.512;6.626;2023-08-07T00:20:11;97215.75;;;19.19;49.63
60228;BME280;46091;46.512;6.626;2023-08-07T00:22:14;97203.03;;;19.26;49.50
60228;BME280;46091;46.512;6.626;2023-08-07T00:24:17;97208.97;;;19.28;49.64
60228;BME280;46091;46.512;6.626;2023-08-07T00:26:20;97206.59;;;19.32;49.52
60228;BME280;46091;46.512;6.626;2023-08-07T00:28:23;97218.16;;;19.32;49.60
60228;BME280;46091;46.512;6.626;2023-08-07T00:30:26;97223.84;;;19.36;49.61
60228;BME280;46091;46.512;6.626;2023-08-07T00:32:29;97223.94;;;19.41;49.81
60228;BME280;46091;46.512;6.626;2023-08-07T00:34:32;97219.97;;;19.43;49.93
60228;BME280;46091;46.512;6.626;2023-08-07T00:36:36;97218.22;;;19.49;50.22
60228;BME280;46091;46.512;6.626;2023-08-07T00:38:39;97222.53;;;19.50;49.98
60228;BME280;46091;46.512;6.626;2023-08-07T00:40:42;97222.28;;;19.52;50.25
60228;BME280;46091;46.512;6.626;2023-08-07T00:42:45;97222.03;;;19.53;50.47
60228;BME280;46091;46.512;6.626;2023-08-07T00:44:47;97225.78;;;19.52;50.43
60228;BME280;46091;46.512;6.626;2023-08-07T00:46:50;97219.34;;;19.53;50.60
60228;BME280;46091;46.512;6.626;2023-08-07T00:48:53;97215.63;;;19.54;50.75
60228;BME280;46091;46.512;6.626;2023-08-07T00:50:56;97220.53;;;19.57;51.00
60228;BME280;46091;46.512;6.626;2023-08-07T00:53:01;97227.06;;;19.61;50.67
60228;BME280;46091;46.512;6.626;2023-08-07T00:55:05;97207.22;;;19.62;50.94
60228;BME280;46091;46.512;6.626;2023-08-07T00:57:10;97204.78;;;19.61;50.98
60228;BME280;46091;46.512;6.626;2023-08-07T00:59:14;97213.41;;;19.63;50.74
60228;BME280;46091;46.512;6.626;2023-08-07T01:01:19;97217.97;;;19.62;50.96
60228;BME280;46091;46.512;6.626;2023-08-07T01:03:23;97217.97;;;19.62;51.00
60228;BME280;46091;46.512;6.626;2023-08-07T01:05:26;97222.81;;;19.65;50.90
60228;BME280;46091;46.512;6.626;2023-08-07T01:07:29;97223.41;;;19.67;50.77
60228;BME280;46091;46.512;6.626;2023-08-07T01:09:33;97224.22;;;19.68;50.56
60228;BME280;46091;46.512;6.626;2023-08-07T01:11:48;97227.63;;;19.63;50.75
60228;BME280;46091;46.512;6.626;2023-08-07T01:13:57;97232.41;;;19.61;50.59
60228;BME280;46091;46.512;6.626;2023-08-07T01:16:06;97235.91;;;19.62;50.68
60228;BME280;46091;46.512;6.626;2023-08-07T01:18:13;97237.28;;;19.64;50.49
60228;BME280;46091;46.512;6.626;2023-08-07T01:20:16;97228.75;;;19.67;50.46
60228;BME280;46091;46.512;6.626;2023-08-07T01:22:19;97235.06;;;19.73;50.56
60228;BME280;46091;46.512;6.626;2023-08-07T01:24:23;97232.13;;;19.74;50.47
60228;BME280;46091;46.512;6.626;2023-08-07T01:26:26;97235.75;;;19.68;50.30
60228;BME280;46091;46.512;6.626;2023-08-07T01:28:33;97233.06;;;19.68;50.05
60228;BME280;46091;46.512;6.626;2023-08-07T01:30:43;97234.63;;;19.64;50.01
60228;BME280;46091;46.512;6.626;2023-08-07T01:33:08;97244.03;;;19.67;49.67
60228;BME280;46091;46.512;6.626;2023-08-07T01:35:15;97251.28;;;19.66;49.67
60228;BME280;46091;46.512;6.626;2023-08-07T01:37:21;97238.94;;;19.65;49.65
60228;BME280;46091;46.512;6.626;2023-08-07T01:39:25;97247.22;;;19.64;49.59
60228;BME280;46091;46.512;6.626;2023-08-07T01:41:29;97247.09;;;19.59;49.47
60228;BME280;46091;46.512;6.626;2023-08-07T01:43:32;97245.47;;;19.58;49.44
60228;BME280;46091;46.512;6.626;2023-08-07T01:45:35;97247.34;;;19.57;49.36
60228;BME280;46091;46.512;6.626;2023-08-07T01:47:37;97247.34;;;19.57;49.58
60228;BME280;46091;46.512;6.626;2023-08-07T01:49:40;97241.53;;;19.60;49.67
60228;BME280;46091;46.512;6.626;2023-08-07T01:51:43;97245.59;;;19.63;49.68
60228;BME280;46091;46.512;6.626;2023-08-07T01:53:47;97239.97;;;19.64;49.52
60228;BME280;46091;46.512;6.626;2023-08-07T01:55:50;97233.47;;;19.60;49.93
60228;BME280;46091;46.512;6.626;2023-08-07T01:57:53;97227.16;;;19.55;49.75
60228;BME280;46091;46.512;6.626;2023-08-07T01:59:56;97223.09;;;19.52;49.70
60228;BME280;46091;46.512;6.626;2023-08-07T02:02:19;97217.63;;;19.47;49.81
60228;BME280;46091;46.512;6.626;2023-08-07T02:04:22;97226.97;;;19.44;49.73
60228;BME280;46091;46.512;6.626;2023-08-07T02:06:25;97229.06;;;19.42;49.76
60228;BME280;46091;46.512;6.626;2023-08-07T02:08:27;97233.06;;;19.40;49.44
60228;BME280;46091;46.512;6.626;2023-08-07T02:10:32;97233.63;;;19.42;49.33
60228;BME280;46091;46.512;6.626;2023-08-07T02:12:35;97230.13;;;19.41;49.28
60228;BME280;46091;46.512;6.626;2023-08-07T02:14:38;97239.78;;;19.42;49.27
60228;BME280;46091;46.512;6.626;2023-08-07T02:16:41;97243.03;;;19.44;49.34
60228;BME280;46091;46.512;6.626;2023-08-07T02:18:44;97243.41;;;19.48;49.24
60228;BME280;46091;46.512;6.626;2023-08-07T02:20:47;97242.34;;;19.49;48.97
60228;BME280;46091;46.512;6.626;2023-08-07T02:22:50;97246.53;;;19.45;49.19
60228;BME280;46091;46.512;6.626;2023-08-07T02:24:53;97253.28;;;19.47;48.96
60228;BME280;46091;46.512;6.626;2023-08-07T02:26:57;97252.03;;;19.50;49.10
60228;BME280;46091;46.512;6.626;2023-08-07T02:29:00;97247.13;;;19.47;49.15
60228;BME280;46091;46.512;6.626;2023-08-07T02:31:03;97236.22;;;19.37;49.28
60228;BME280;46091;46.512;6.626;2023-08-07T02:33:06;97243.41;;;19.36;49.27
60228;BME280;46091;46.512;6.626;2023-08-07T02:35:09;97243.66;;;19.35;49.12
60228;BME280;46091;46.512;6.626;2023-08-07T02:37:11;97247.63;;;19.32;48.96
60228;BME280;46091;46.512;6.626;2023-08-07T02:39:14;97253.22;;;19.31;48.89
60228;BME280;46091;46.512;6.626;2023-08-07T02:41:16;97244.50;;;19.24;48.88
60228;BME280;46091;46.512;6.626;2023-08-07T02:43:21;97239.06;;;19.18;48.75
60228;BME280;46091;46.512;6.626;2023-08-07T02:45:24;97247.66;;;19.20;48.83
60228;BME280;46091;46.512;6.626;2023-08-07T02:47:27;97254.91;;;19.20;48.81
60228;BME280;46091;46.512;6.626;2023-08-07T02:49:30;97257.00;;;19.18;48.84
60228;BME280;46091;46.512;6.626;2023-08-07T02:51:33;97260.97;;;19.15;48.85
60228;BME280;46091;46.512;6.626;2023-08-07T02:53:34;97265.84;;;19.18;49.00
60228;BME280;46091;46.512;6.626;2023-08-07T02:55:37;97267.38;;;19.14;48.89
60228;BME280;46091;46.512;6.626;2023-08-07T02:57:40;97272.75;;;19.14;49.17
60228;BME280;46091;46.512;6.626;2023-08-07T02:59:44;97268.66;;;19.12;49.12
60228;BME280;46091;46.512;6.626;2023-08-07T03:01:47;97261.41;;;19.12;49.29
60228;BME280;46091;46.512;6.626;2023-08-07T03:03:50;97264.00;;;19.07;49.19
60228;BME280;46091;46.512;6.626;2023-08-07T03:05:53;97263.69;;;19.04;49.11
60228;BME280;46091;46.512;6.626;2023-08-07T03:07:56;97262.03;;;19.03;49.44
60228;BME280;46091;46.512;6.626;2023-08-07T03:09:59;97261.69;;;18.99;49.17
60228;BME280;46091;46.512;6.626;2023-08-07T03:12:02;97253.88;;;18.98;49.33
60228;BME280;46091;46.512;6.626;2023-08-07T03:14:05;97251.69;;;18.95;49.12
60228;BME280;46091;46.512;6.626;2023-08-07T03:16:10;97244.94;;;18.92;49.26
60228;BME280;46091;46.512;6.626;2023-08-07T03:18:13;97251.78;;;18.88;49.13
60228;BME280;46091;46.512;6.626;2023-08-07T03:20:16;97252.28;;;18.85;49.14
60228;BME280;46091;46.512;6.626;2023-08-07T03:22:18;97250.88;;;18.82;49.21
60228;BME280;46091;46.512;6.626;2023-08-07T03:24:21;97253.31;;;18.84;49.06
60228;BME280;46091;46.512;6.626;2023-08-07T03:26:24;97252.28;;;18.85;49.02
60228;BME280;46091;46.512;6.626;2023-08-07T03:28:27;97252.50;;;18.83;49.04
60228;BME280;46091;46.512;6.626;2023-08-07T03:30:30;97245.16;;;18.79;48.88
60228;BME280;46091;46.512;6.626;2023-08-07T03:32:34;97240.41;;;18.81;48.95
60228;BME280;46091;46.512;6.626;2023-08-07T03:34:37;97237.72;;;18.81;48.98
60228;BME280;46091;46.512;6.626;2023-08-07T03:36:40;97239.34;;;18.82;49.01
60228;BME280;46091;46.512;6.626;2023-08-07T03:38:43;97237.50;;;18.82;49.02
60228;BME280;46091;46.512;6.626;2023-08-07T03:40:46;97232.38;;;18.81;49.00
60228;BME280;46091;46.512;6.626;2023-08-07T03:42:49;97244.22;;;18.85;49.00
60228;BME280;46091;46.512;6.626;2023-08-07T03:44:51;97240.03;;;18.89;48.93
60228;BME280;46091;46.512;6.626;2023-08-07T03:46:54;97253.53;;;18.94;48.77
60228;BME280;46091;46.512;6.626;2023-08-07T03:49:00;97249.00;;;18.95;48.95
60228;BME280;46091;46.512;6.626;2023-08-07T03:51:03;97248.63;;;18.91;48.89
60228;BME280;46091;46.512;6.626;2023-08-07T03:53:07;97247.63;;;18.92;48.98
60228;BME280;46091;46.512;6.626;2023-08-07T03:55:09;97249.47;;;18.92;48.70
60228;BME280;46091;46.512;6.626;2023-08-07T03:57:12;97252.59;;;18.88;48.83
60228;BME280;46091;46.512;6.626;2023-08-07T03:59:15;97258.53;;;18.90;48.84
60228;BME280;46091;46.512;6.626;2023-08-07T04:01:17;97258.19;;;18.87;48.88
60228;BME280;46091;46.512;6.626;2023-08-07T04:03:20;97260.88;;;18.87;48.92
60228;BME280;46091;46.512;6.626;2023-08-07T04:05:25;97256.56;;;18.86;49.02
60228;BME280;46091;46.512;6.626;2023-08-07T04:07:27;97262.75;;;18.86;49.10
60228;BME280;46091;46.512;6.626;2023-08-07T04:09:31;97259.81;;;18.88;49.07
60228;BME280;46091;46.512;6.626;2023-08-07T04:11:34;97259.25;;;18.86;48.83
60228;BME280;46091;46.512;6.626;2023-08-07T04:13:37;97252.50;;;18.83;48.81
60228;BME280;46091;46.512;6.626;2023-08-07T04:15:40;97250.88;;;18.82;48.80
60228;BME280;46091;46.512;6.626;2023-08-07T04:17:43;97252.13;;;18.80;48.84
60228;BME280;46091;46.512;6.626;2023-08-07T04:19:46;97245.16;;;18.79;48.76
60228;BME280;46091;46.512;6.626;2023-08-07T04:21:51;97248.53;;;18.74;48.79
60228;BME280;46091;46.512;6.626;2023-08-07T04:23:53;97244.00;;;18.75;48.63
60228;BME280;46091;46.512;6.626;2023-08-07T04:25:55;97245.97;;;18.79;48.90
60228;BME280;46091;46.512;6.626;2023-08-07T04:27:59;97247.63;;;18.80;48.66
60228;BME280;46091;46.512;6.626;2023-08-07T04:30:02;97243.09;;;18.81;48.65
60228;BME280;46091;46.512;6.626;2023-08-07T04:32:06;97251.13;;;18.81;48.57
60228;BME280;46091;46.512;6.626;2023-08-07T04:34:09;97251.13;;;18.81;48.67
60228;BME280;46091;46.512;6.626;2023-08-07T04:36:15;97264.97;;;18.78;48.69
60228;BME280;46091;46.512;6.626;2023-08-07T04:38:19;97257.97;;;18.77;48.53
60228;BME280;46091;46.512;6.626;2023-08-07T04:40:23;97258.44;;;18.74;48.63
60228;BME280;46091;46.512;6.626;2023-08-07T04:42:26;97251.00;;;18.76;48.67
60228;BME280;46091;46.512;6.626;2023-08-07T04:44:29;97256.34;;;18.76;48.66
60228;BME280;46091;46.512;6.626;2023-08-07T04:46:32;97252.63;;;18.77;48.48
60228;BME280;46091;46.512;6.626;2023-08-07T04:48:37;97257.97;;;18.77;48.33
60228;BME280;46091;46.512;6.626;2023-08-07T04:50:40;97257.97;;;18.77;48.43
60228;BME280;46091;46.512;6.626;2023-08-07T04:52:43;97251.00;;;18.76;48.36
60228;BME280;46091;46.512;6.626;2023-08-07T04:54:47;97253.09;;;18.74;48.15
60228;BME280;46091;46.512;6.626;2023-08-07T04:56:51;97251.47;;;18.73;48.30
60228;BME280;46091;46.512;6.626;2023-08-07T04:58:54;97260.88;;;18.75;48.11
60228;BME280;46091;46.512;6.626;2023-08-07T05:00:58;97250.75;;;18.77;48.16
60228;BME280;46091;46.512;6.626;2023-08-07T05:03:01;97251.31;;;18.79;47.91
60228;BME280;46091;46.512;6.626;2023-08-07T05:05:05;97254.38;;;18.83;47.87
60228;BME280;46091;46.512;6.626;2023-08-07T05:07:08;97250.88;;;18.82;47.85
60228;BME280;46091;46.512;6.626;2023-08-07T05:09:11;97261.59;;;18.82;47.61
60228;BME280;46091;46.512;6.626;2023-08-07T05:11:15;97253.31;;;18.84;47.90
60228;BME280;46091;46.512;6.626;2023-08-07T05:13:18;97256.09;;;18.89;47.75
60228;BME280;46091;46.512;6.626;2023-08-07T05:15:21;97255.66;;;18.92;47.82
60228;BME280;46091;46.512;6.626;2023-08-07T05:17:24;97249.69;;;18.90;47.51
60228;BME280;46091;46.512;6.626;2023-08-07T05:19:27;97256.09;;;18.89;47.68
60228;BME280;46091;46.512;6.626;2023-08-07T05:21:30;97250.75;;;18.89;47.75
60228;BME280;46091;46.512;6.626;2023-08-07T05:23:33;97256.91;;;18.89;47.70
60228;BME280;46091;46.512;6.626;2023-08-07T05:25:35;97267.63;;;18.89;47.70
60228;BME280;46091;46.512;6.626;2023-08-07T05:27:39;97271.59;;;18.87;47.47
60228;BME280;46091;46.512;6.626;2023-08-07T05:29:42;97268.91;;;18.87;47.50
60228;BME280;46091;46.512;6.626;2023-08-07T05:31:46;97268.44;;;18.90;47.47
60228;BME280;46091;46.512;6.626;2023-08-07T05:33:48;97271.13;;;18.90;47.38
60228;BME280;46091;46.512;6.626;2023-08-07T05:35:51;97264.72;;;18.91;47.34
60228;BME280;46091;46.512;6.626;2023-08-07T05:37:54;97270.66;;;18.93;47.39
60228;BME280;46091;46.512;6.626;2023-08-07T05:39:57;97277.66;;;18.94;47.35
60228;BME280;46091;46.512;6.626;2023-08-07T05:42:00;97273.44;;;18.98;47.32
60228;BME280;46091;46.512;6.626;2023-08-07T05:44:04;97267.84;;;19.00;47.34
60228;BME280;46091;46.512;6.626;2023-08-07T05:46:08;97277.75;;;18.99;47.58
60228;BME280;46091;46.512;6.626;2023-08-07T05:48:11;97272.41;;;18.99;47.55
60228;BME280;46091;46.512;6.626;2023-08-07T05:50:14;97278.13;;;19.03;47.54
60228;BME280;46091;46.512;6.626;2023-08-07T05:52:17;97277.06;;;19.04;47.33
60228;BME280;46091;46.512;6.626;2023-08-07T05:54:20;97278.94;;;19.03;47.33
60228;BME280;46091;46.512;6.626;2023-08-07T05:56:23;97281.00;;;19.01;47.21
60228;BME280;46091;46.512;6.626;2023-08-07T05:58:26;97284.66;;;18.95;47.09
60228;BME280;46091;46.512;6.626;2023-08-07T06:00:30;97280.34;;;18.94;47.22
60228;BME280;46091;46.512;6.626;2023-08-07T06:02:33;97283.34;;;18.98;47.12
60228;BME280;46091;46.512;6.626;2023-08-07T06:04:36;97289.28;;;19.00;46.92
60228;BME280;46091;46.512;6.626;2023-08-07T06:06:39;97290.56;;;18.97;47.04
60228;BME280;46091;46.512;6.626;2023-08-07T06:08:44;97286.38;;;19.01;46.89
60228;BME280;46091;46.512;6.626;2023-08-07T06:10:48;97297.69;;;19.03;46.86
60228;BME280;46091;46.512;6.626;2023-08-07T06:12:50;97298.28;;;19.05;46.87
60228;BME280;46091;46.512;6.626;2023-08-07T06:14:54;97301.53;;;19.07;46.82
60228;BME280;46091;46.512;6.626;2023-08-07T06:16:58;97305.34;;;19.11;47.07
60228;BME280;46091;46.512;6.626;2023-08-07T06:19:02;97306.53;;;19.15;47.09
60228;BME280;46091;46.512;6.626;2023-08-07T06:21:25;97302.31;;;19.19;47.04
60228;BME280;46091;46.512;6.626;2023-08-07T06:23:30;97305.56;;;19.22;46.86
60228;BME280;46091;46.512;6.626;2023-08-07T06:25:32;97310.47;;;19.25;46.80
60228;BME280;46091;46.512;6.626;2023-08-07T06:27:35;97307.31;;;19.28;46.90
60228;BME280;46091;46.512;6.626;2023-08-07T06:29:38;97305.22;;;19.30;47.04
60228;BME280;46091;46.512;6.626;2023-08-07T06:31:41;97302.63;;;19.35;46.80
60228;BME280;46091;46.512;6.626;2023-08-07T06:33:45;97310.81;;;19.40;46.79
60228;BME280;46091;46.512;6.626;2023-08-07T06:35:52;97304.16;;;19.42;46.74
60228;BME280;46091;46.512;6.626;2023-08-07T06:37:55;97310.88;;;19.45;46.76
60228;BME280;46091;46.512;6.626;2023-08-07T06:39:58;97311.94;;;19.44;46.99
60228;BME280;46091;46.512;6.626;2023-08-07T06:42:01;97305.06;;;19.48;46.95
60228;BME280;46091;46.512;6.626;2023-08-07T06:44:04;97312.88;;;19.49;46.83
60228;BME280;46091;46.512;6.626;2023-08-07T06:46:07;97311.34;;;19.54;47.15
60228;BME280;46091;46.512;6.626;2023-08-07T06:48:10;97319.19;;;19.55;47.12
60228;BME280;46091;46.512;6.626;2023-08-07T06:50:14;97312.97;;;19.55;47.20
60228;BME280;46091;46.512;6.626;2023-08-07T06:52:16;97321.63;;;19.57;47.10
60228;BME280;46091;46.512;6.626;2023-08-07T06:54:19;97321.16;;;19.60;47.08
60228;BME280;46091;46.512;6.626;2023-08-07T06:56:21;97324.41;;;19.62;47.31
60228;BME280;46091;46.512;6.626;2023-08-07T06:58:24;97325.81;;;19.64;47.30
60228;BME280;46091;46.512;6.626;2023-08-07T07:00:27;97326.38;;;19.66;47.48
60228;BME280;46091;46.512;6.626;2023-08-07T07:02:30;97330.69;;;19.67;47.41
60228;BME280;46091;46.512;6.626;2023-08-07T07:04:33;97338.25;;;19.70;47.62
60228;BME280;46091;46.512;6.626;2023-08-07T07:06:39;97339.91;;;19.71;47.42
60228;BME280;46091;46.512;6.626;2023-08-07T07:08:42;97338.84;;;19.72;47.53
60228;BME280;46091;46.512;6.626;2023-08-07T07:10:45;97337.78;;;19.73;47.63
60228;BME280;46091;46.512;6.626;2023-08-07T07:12:48;97345.59;;;19.75;47.67
60228;BME280;46091;46.512;6.626;2023-08-07T07:14:51;97339.41;;;19.74;47.62
60228;BME280;46091;46.512;6.626;2023-08-07T07:16:54;97335.69;;;19.75;47.61
60228;BME280;46091;46.512;6.626;2023-08-07T07:18:57;97336.75;;;19.74;47.70
60228;BME280;46091;46.512;6.626;2023-08-07T07:21:01;97337.31;;;19.76;47.55
60228;BME280;46091;46.512;6.626;2023-08-07T07:23:05;97346.75;;;19.79;47.74
60228;BME280;46091;46.512;6.626;2023-08-07T07:25:09;97341.75;;;19.83;47.88
60228;BME280;46091;46.512;6.626;2023-08-07T07:27:12;97339.63;;;19.85;47.73
60228;BME280;46091;46.512;6.626;2023-08-07T07:29:16;97353.63;;;19.87;47.73
60228;BME280;46091;46.512;6.626;2023-08-07T07:31:20;97356.28;;;19.87;47.84
60228;BME280;46091;46.512;6.626;2023-08-07T07:33:23;97352.56;;;19.88;47.98
60228;BME280;46091;46.512;6.626;2023-08-07T07:35:26;97347.75;;;19.90;47.97
60228;BME280;46091;46.512;6.626;2023-08-07T07:37:29;97344.03;;;19.91;47.78
60228;BME280;46091;46.512;6.626;2023-08-07T07:39:35;97345.06;;;19.90;47.83
60228;BME280;46091;46.512;6.626;2023-08-07T07:41:38;97343.22;;;19.90;48.03
60228;BME280;46091;46.512;6.626;2023-08-07T07:43:41;97338.56;;;19.86;48.02
60228;BME280;46091;46.512;6.626;2023-08-07T07:45:44;97327.72;;;19.81;47.98
60228;BME280;46091;46.512;6.626;2023-08-07T07:47:47;97332.75;;;19.77;48.08
60228;BME280;46091;46.512;6.626;2023-08-07T07:50:05;97331.94;;;19.76;48.42
60228;BME280;46091;46.512;6.626;2023-08-07T07:52:10;97324.13;;;19.75;48.31
60228;BME280;46091;46.512;6.626;2023-08-07T07:54:13;97329.25;;;19.76;48.48
60228;BME280;46091;46.512;6.626;2023-08-07T07:56:18;97337.31;;;19.76;48.48
60228;BME280;46091;46.512;6.626;2023-08-07T07:58:21;97339.19;;;19.76;48.54
60228;BME280;46091;46.512;6.626;2023-08-07T08:00:23;97339.75;;;19.78;48.48
60228;BME280;46091;46.512;6.626;2023-08-07T08:02:28;97347.78;;;19.78;48.29
60228;BME280;46091;46.512;6.626;2023-08-07T08:04:32;97347.31;;;19.81;48.62
60228;BME280;46091;46.512;6.626;2023-08-07T08:06:37;97347.22;;;19.76;48.69
60228;BME280;46091;46.512;6.626;2023-08-07T08:08:42;97353.06;;;19.73;48.54
60228;BME280;46091;46.512;6.626;2023-08-07T08:10:45;97356.00;;;19.71;48.69
60228;BME280;46091;46.512;6.626;2023-08-07T08:12:50;97352.50;;;19.71;48.38
60228;BME280;46091;46.512;6.626;2023-08-07T08:14:53;97351.66;;;19.70;48.30
60228;BME280;46091;46.512;6.626;2023-08-07T08:16:57;97346.78;;;19.67;48.29
60228;BME280;46091;46.512;6.626;2023-08-07T08:19:00;97351.09;;;19.68;48.39
60228;BME280;46091;46.512;6.626;2023-08-07T08:21:03;97352.25;;;19.72;48.47
60228;BME280;46091;46.512;6.626;2023-08-07T08:23:08;97355.53;;;19.74;48.17
60228;BME280;46091;46.512;6.626;2023-08-07T08:25:11;97358.19;;;19.74;48.15
60228;BME280;46091;46.512;6.626;2023-08-07T08:27:14;97353.78;;;19.68;48.28
60228;BME280;46091;46.512;6.626;2023-08-07T08:29:20;97349.47;;;19.67;48.63
60228;BME280;46091;46.512;6.626;2023-08-07T08:31:23;97356.44;;;19.68;48.59
60228;BME280;46091;46.512;6.626;2023-08-07T08:33:26;97349.94;;;19.64;48.53
60228;BME280;46091;46.512;6.626;2023-08-07T08:35:29;97350.28;;;19.68;48.47
60228;BME280;46091;46.512;6.626;2023-08-07T08:37:32;97345.97;;;19.67;48.65
60228;BME280;46091;46.512;6.626;2023-08-07T08:39:35;97345.72;;;19.68;48.56
60228;BME280;46091;46.512;6.626;2023-08-07T08:41:39;97346.09;;;19.72;48.53
60228;BME280;46091;46.512;6.626;2023-08-07T08:43:43;97345.94;;;19.78;48.32
60228;BME280;46091;46.512;6.626;2023-08-07T08:45:49;97346.28;;;19.82;48.26
60228;BME280;46091;46.512;6.626;2023-08-07T08:47:55;97348.25;;;19.87;48.41
60228;BME280;46091;46.512;6.626;2023-08-07T08:50:06;97352.19;;;19.96;48.39
60228;BME280;46091;46.512;6.626;2023-08-07T08:52:10;97349.84;;;19.99;48.01
60228;BME280;46091;46.512;6.626;2023-08-07T08:54:13;97349.59;;;20.01;48.22
60228;BME280;46091;46.512;6.626;2023-08-07T08:56:16;97342.59;;;20.00;48.38
60228;BME280;46091;46.512;6.626;2023-08-07T08:58:20;97347.97;;;20.00;48.39
60228;BME280;46091;46.512;6.626;2023-08-07T09:00:23;97340.97;;;19.99;48.01
60228;BME280;46091;46.512;6.626;2023-08-07T09:02:28;97339.34;;;19.98;47.85
60228;BME280;46091;46.512;6.626;2023-08-07T09:04:32;97337.78;;;20.02;48.39
60228;BME280;46091;46.512;6.626;2023-08-07T09:06:35;97334.16;;;20.08;47.94
60228;BME280;46091;46.512;6.626;2023-08-07T09:08:40;97336.59;;;20.10;47.92
60228;BME280;46091;46.512;6.626;2023-08-07T09:10:43;97344.41;;;20.11;47.72
60228;BME280;46091;46.512;6.626;2023-08-07T09:12:53;97340.66;;;20.12;48.10
60228;BME280;46091;46.512;6.626;2023-08-07T09:14:57;97343.91;;;20.14;47.94
60228;BME280;46091;46.512;6.626;2023-08-07T09:17:01;97344.53;;;20.16;47.89
60228;BME280;46091;46.512;6.626;2023-08-07T09:19:05;97341.84;;;20.16;47.49
60228;BME280;46091;46.512;6.626;2023-08-07T09:21:09;97343.91;;;20.14;47.74
60228;BME280;46091;46.512;6.626;2023-08-07T09:23:12;97350.09;;;20.15;47.38
60228;BME280;46091;46.512;6.626;2023-08-07T09:25:26;97356.88;;;20.17;47.64
60228;BME280;46091;46.512;6.626;2023-08-07T09:27:29;97355.81;;;20.18;47.20
60228;BME280;46091;46.512;6.626;2023-08-07T09:29:33;97358.28;;;20.20;47.12
60228;BME280;46091;46.512;6.626;2023-08-07T09:31:36;97354.53;;;20.21;47.01
60228;BME280;46091;46.512;6.626;2023-08-07T09:33:40;97358.59;;;20.23;46.94
60228;BME280;46091;46.512;6.626;2023-08-07T09:35:45;97362.66;;;20.26;46.94
60228;BME280;46091;46.512;6.626;2023-08-07T09:37:48;97364.88;;;20.29;46.56
60228;BME280;46091;46.512;6.626;2023-08-07T09:39:51;97365.69;;;20.29;46.89
60228;BME280;46091;46.512;6.626;2023-08-07T09:41:54;97366.84;;;20.33;46.17
60228;BME280;46091;46.512;6.626;2023-08-07T09:43:57;97371.72;;;20.36;46.53
60228;BME280;46091;46.512;6.626;2023-08-07T09:46:03;97370.19;;;20.41;46.17
60228;BME280;46091;46.512;6.626;2023-08-07T09:48:06;97365.41;;;20.43;46.14
60228;BME280;46091;46.512;6.626;2023-08-07T09:50:15;97368.69;;;20.45;45.94
60228;BME280;46091;46.512;6.626;2023-08-07T09:52:20;97368.19;;;20.48;45.89
60228;BME280;46091;46.512;6.626;2023-08-07T09:54:23;97368.75;;;20.50;46.12
60228;BME280;46091;46.512;6.626;2023-08-07T09:56:26;97360.94;;;20.48;45.80
60228;BME280;46091;46.512;6.626;2023-08-07T09:58:29;97368.75;;;20.50;45.54
60228;BME280;46091;46.512;6.626;2023-08-07T10:00:34;97365.50;;;20.48;45.51
60228;BME280;46091;46.512;6.626;2023-08-07T10:02:37;97367.72;;;20.51;45.29
60228;BME280;46091;46.512;6.626;2023-08-07T10:04:41;97362.91;;;20.53;45.52
60228;BME280;46091;46.512;6.626;2023-08-07T10:06:44;97366.16;;;20.55;45.59
60228;BME280;46091;46.512;6.626;2023-08-07T10:08:50;97375.84;;;20.56;45.47
60228;BME280;46091;46.512;6.626;2023-08-07T10:10:53;97366.97;;;20.55;44.93
60228;BME280;46091;46.512;6.626;2023-08-07T10:12:56;97359.16;;;20.54;45.06
60228;BME280;46091;46.512;6.626;2023-08-07T10:15:01;97361.28;;;20.52;44.80
60228;BME280;46091;46.512;6.626;2023-08-07T10:17:04;97363.16;;;20.51;44.93
60228;BME280;46091;46.512;6.626;2023-08-07T10:19:08;97366.41;;;20.53;45.13
60228;BME280;46091;46.512;6.626;2023-08-07T10:21:11;97360.22;;;20.53;44.74
60228;BME280;46091;46.512;6.626;2023-08-07T10:23:14;97366.16;;;20.55;44.99
60228;BME280;46091;46.512;6.626;2023-08-07T10:25:21;97368.03;;;20.54;44.90
60228;BME280;46091;46.512;6.626;2023-08-07T10:27:26;97366.16;;;20.55;44.67
60228;BME280;46091;46.512;6.626;2023-08-07T10:29:31;97367.22;;;20.54;44.45
60228;BME280;46091;46.512;6.626;2023-08-07T10:31:36;97364.78;;;20.52;44.07
60228;BME280;46091;46.512;6.626;2023-08-07T10:33:42;97359.06;;;20.49;43.83
60228;BME280;46091;46.512;6.626;2023-08-07T10:35:47;97356.63;;;20.47;43.46
60228;BME280;46091;46.512;6.626;2023-08-07T10:37:50;97355.56;;;20.48;43.11
60228;BME280;46091;46.512;6.626;2023-08-07T10:40:02;97344.81;;;20.48;41.58
60228;BME280;46091;46.512;6.626;2023-08-07T10:42:07;97350.69;;;20.45;41.37
60228;BME280;46091;46.512;6.626;2023-08-07T10:44:20;97349.38;;;20.48;41.52
60228;BME280;46091;46.512;6.626;2023-08-07T10:46:24;97346.44;;;20.49;40.63
60228;BME280;46091;46.512;6.626;2023-08-07T10:48:27;97339.22;;;20.50;40.90
60228;BME280;46091;46.512;6.626;2023-08-07T10:50:30;97338.19;;;20.51;41.08
60228;BME280;46091;46.512;6.626;2023-08-07T10:52:38;97343.06;;;20.54;40.90
60228;BME280;46091;46.512;6.626;2023-08-07T10:54:44;97348.50;;;20.59;40.88
60228;BME280;46091;46.512;6.626;2023-08-07T10:56:52;97346.16;;;20.62;40.73